createdAt,value
2019-02-24T00:01:51.696Z,96875.94
2019-02-24T00:04:20.987Z,96872.50
2019-02-24T00:06:50.086Z,96871.94
2019-02-24T00:09:19.181Z,96872.44
2019-02-24T00:11:48.470Z,96878.34
2019-02-24T00:14:17.720Z,96867.66
2019-02-24T00:16:46.782Z,96876.95
2019-02-24T00:19:15.900Z,96879.18
2019-02-24T00:21:44.976Z,96877.94
2019-02-24T00:24:14.087Z,96880.62
2019-02-24T00:26:43.344Z,96884.47
2019-02-24T00:29:12.349Z,96884.67
2019-02-24T00:31:41.367Z,96875.22
2019-02-24T00:34:10.482Z,96880.38
2019-02-24T00:36:39.545Z,96878.14
2019-02-24T00:39:08.639Z,96883.58
2019-02-24T00:41:37.946Z,96880.66
2019-02-24T00:44:07.051Z,96871.20
2019-02-24T00:46:36.840Z,96879.76
2019-02-24T00:49:06.159Z,96877.53
2019-02-24T00:51:35.261Z,96879.62
2019-02-24T00:54:04.344Z,96879.86
2019-02-24T00:56:33.569Z,96878.48
2019-02-24T00:59:02.684Z,96877.14
2019-02-24T01:01:31.886Z,96881.58
2019-02-24T01:04:01.028Z,96879.17
2019-02-24T01:06:30.139Z,96874.47
2019-02-24T01:08:59.231Z,96884.67
2019-02-24T01:11:28.371Z,96870.50
2019-02-24T01:13:58.046Z,96871.67
2019-02-24T01:16:27.137Z,96877.88
2019-02-24T01:18:56.201Z,96873.59
2019-02-24T01:21:25.480Z,96870.64
2019-02-24T01:23:55.021Z,96865.91
2019-02-24T01:26:24.163Z,96868.97
2019-02-24T01:28:53.230Z,96865.28
2019-02-24T01:31:22.332Z,96862.29
2019-02-24T01:33:51.443Z,96866.93
2019-02-24T01:36:21.133Z,96867.38
2019-02-24T01:38:50.208Z,96864.83
2019-02-24T01:41:19.370Z,96866.93
2019-02-24T01:43:48.410Z,96867.23
2019-02-24T01:46:17.515Z,96870.25
2019-02-24T01:48:47.385Z,96874.55
2019-02-24T01:51:16.465Z,96870.91
2019-02-24T01:53:45.529Z,96864.37
2019-02-24T01:56:14.737Z,96869.36
2019-02-24T01:58:43.969Z,96862.63
2019-02-24T02:01:13.018Z,96866.11
2019-02-24T02:03:42.127Z,96861.47
2019-02-24T02:06:11.305Z,96855.64
2019-02-24T02:08:40.531Z,96853.72
2019-02-24T02:11:10.060Z,96857.08
2019-02-24T02:13:39.372Z,96849.62
2019-02-24T02:16:08.819Z,96848.00
2019-02-24T02:18:38.236Z,96834.45
2019-02-24T02:21:07.372Z,96833.64
2019-02-24T02:23:36.576Z,96833.43
2019-02-24T02:26:05.833Z,96831.61
2019-02-24T02:28:43.619Z,96828.86
2019-02-24T02:31:04.342Z,96827.97
2019-02-24T02:33:33.427Z,96828.48
2019-02-24T02:36:02.501Z,96831.84
2019-02-24T02:38:31.635Z,96822.91
2019-02-24T02:41:00.695Z,96827.55
2019-02-24T02:43:29.959Z,96828.34
2019-02-24T02:45:59.622Z,96825.52
2019-02-24T02:48:28.790Z,96824.91
2019-02-24T02:50:58.636Z,96826.89
2019-02-24T02:53:27.769Z,96827.07
2019-02-24T02:55:56.912Z,96832.16
2019-02-24T02:58:25.959Z,96836.42
2019-02-24T03:00:55.034Z,96835.42
2019-02-24T03:03:24.122Z,96834.02
2019-02-24T03:05:59.256Z,96835.19
2019-02-24T03:08:59.890Z,96830.95
2019-02-24T03:11:28.990Z,96832.77
2019-02-24T03:13:58.069Z,96832.56
2019-02-24T03:16:28.353Z,96833.53
2019-02-24T03:18:57.364Z,96830.60
2019-02-24T03:21:26.486Z,96834.41
2019-02-24T03:23:55.594Z,96829.77
2019-02-24T03:26:25.528Z,96836.20
2019-02-24T03:29:03.625Z,96833.86
2019-02-24T03:31:23.792Z,96836.95
2019-02-24T03:33:53.554Z,96840.03
2019-02-24T03:36:22.599Z,96838.85
2019-02-24T03:38:51.699Z,96838.92
2019-02-24T03:41:20.804Z,96837.17
2019-02-24T03:43:49.880Z,96837.69
2019-02-24T03:46:19.623Z,96833.49
2019-02-24T03:48:48.800Z,96837.48
2019-02-24T03:51:17.901Z,96834.21
2019-02-24T03:53:47.923Z,96829.33
2019-02-24T03:56:17.165Z,96828.92
2019-02-24T03:58:46.348Z,96829.16
2019-02-24T04:01:15.613Z,96822.42
2019-02-24T04:03:44.724Z,96826.23
2019-02-24T04:06:13.777Z,96820.90
2019-02-24T04:08:42.915Z,96807.83
2019-02-24T04:11:12.108Z,96828.45
2019-02-24T04:13:41.165Z,96829.08
2019-02-24T04:16:10.417Z,96821.89
2019-02-24T04:18:39.478Z,96822.62
2019-02-24T04:21:08.596Z,96821.14
2019-02-24T04:23:37.661Z,96821.34
2019-02-24T04:26:06.930Z,96820.22
2019-02-24T04:28:36.004Z,96819.62
2019-02-24T04:31:05.066Z,96818.05
2019-02-24T04:33:34.176Z,96818.70
2019-02-24T04:36:03.276Z,96817.88
2019-02-24T04:38:32.253Z,96821.15
2019-02-24T04:41:01.331Z,96820.88
2019-02-24T04:43:30.452Z,96816.95
2019-02-24T04:45:59.552Z,96807.63
2019-02-24T04:48:28.637Z,96808.13
2019-02-24T04:50:58.021Z,96808.77
2019-02-24T04:53:27.146Z,96810.42
2019-02-24T04:55:56.125Z,96801.89
2019-02-24T04:58:24.984Z,96801.89
2019-02-24T05:00:54.417Z,96808.31
2019-02-24T05:03:24.258Z,96809.00
2019-02-24T05:05:53.257Z,96820.02
2019-02-24T05:08:22.360Z,96823.22
2019-02-24T05:10:51.608Z,96829.02
2019-02-24T05:13:21.336Z,96837.19
2019-02-24T05:15:50.427Z,96850.06
2019-02-24T05:18:19.519Z,96854.50
2019-02-24T05:20:48.670Z,96853.88
2019-02-24T05:23:17.868Z,96859.88
2019-02-24T05:25:46.911Z,96864.37
2019-02-24T05:28:16.040Z,96867.58
2019-02-24T05:30:45.167Z,96872.19
2019-02-24T05:33:14.393Z,96882.19
2019-02-24T05:35:43.512Z,96876.20
2019-02-24T05:38:12.604Z,96871.11
2019-02-24T05:40:41.690Z,96878.53
2019-02-24T05:43:10.882Z,96870.47
2019-02-24T05:45:40.004Z,96871.81
2019-02-24T05:48:09.106Z,96876.17
2019-02-24T05:50:38.170Z,96882.53
2019-02-24T05:53:07.341Z,96877.77
2019-02-24T05:55:37.147Z,96879.67
2019-02-24T05:58:06.416Z,96882.05
2019-02-24T06:00:35.498Z,96878.52
2019-02-24T06:03:04.600Z,96880.09
2019-02-24T06:05:33.898Z,96878.63
2019-02-24T06:08:02.990Z,96883.56
2019-02-24T06:10:32.328Z,96884.30
2019-02-24T06:13:01.451Z,96875.95
2019-02-24T06:15:30.569Z,96884.48
2019-02-24T06:17:59.793Z,96892.64
2019-02-24T06:20:29.004Z,96894.09
2019-02-24T06:22:58.872Z,96892.52
2019-02-24T06:25:28.000Z,96896.94
2019-02-24T06:27:57.215Z,96893.89
2019-02-24T06:30:26.266Z,96899.79
2019-02-24T06:32:55.373Z,96899.77
2019-02-24T06:35:24.500Z,96894.25
2019-02-24T06:37:53.604Z,96897.11
2019-02-24T06:40:23.311Z,96892.05
2019-02-24T07:03:36.022Z,96902.94
2019-02-24T07:06:05.139Z,96914.30
2019-02-24T07:08:34.228Z,96918.00
2019-02-24T07:11:03.864Z,96911.86
2019-02-24T07:13:32.878Z,96906.31
2019-02-24T07:16:02.035Z,96914.80
2019-02-24T07:18:31.434Z,96910.07
2019-02-24T07:37:46.414Z,96902.42
2019-02-24T07:40:15.520Z,96898.24
2019-02-24T07:42:44.654Z,96892.86
2019-02-24T07:45:13.720Z,96905.81
2019-02-24T07:47:42.820Z,96902.11
2019-02-24T07:50:11.953Z,96899.78
2019-02-24T07:52:40.993Z,96897.83
2019-02-24T07:55:10.112Z,96897.50
2019-02-24T07:57:39.211Z,96904.73
2019-02-24T08:00:08.524Z,96901.27
2019-02-24T08:02:37.596Z,96901.73
2019-02-24T08:05:07.242Z,96902.67
2019-02-24T08:07:36.292Z,96900.33
2019-02-24T08:10:06.254Z,96909.53
2019-02-24T08:12:35.348Z,96902.06
2019-02-24T08:15:04.641Z,96897.44
2019-02-24T08:17:33.694Z,96897.77
2019-02-24T08:20:03.714Z,96897.07
2019-02-24T08:22:32.851Z,96893.35
2019-02-24T08:25:01.817Z,96900.20
2019-02-24T08:27:31.120Z,96890.06
2019-02-24T08:30:02.371Z,96888.02
2019-02-24T08:32:35.721Z,96889.75
2019-02-24T08:35:05.012Z,96887.44
2019-02-24T08:37:34.194Z,96890.41
2019-02-24T08:40:03.287Z,96888.23
2019-02-24T08:42:32.923Z,96889.83
2019-02-24T09:01:48.537Z,96865.20
2019-02-24T09:04:17.881Z,96864.76
2019-02-24T09:06:47.471Z,96868.95
2019-02-24T09:09:16.749Z,96867.24
2019-02-24T09:11:45.916Z,96861.39
2019-02-24T09:14:14.856Z,96860.62
2019-02-24T09:16:43.944Z,96856.12
2019-02-24T09:19:13.252Z,96848.27
2019-02-24T09:21:42.415Z,96848.36
2019-02-24T09:24:11.916Z,96850.79
2019-02-24T09:26:41.344Z,96844.70
2019-02-24T09:29:12.033Z,96844.31
2019-02-24T09:31:41.055Z,96842.67
2019-02-24T09:34:10.352Z,96842.78
2019-02-24T09:36:39.487Z,96838.14
2019-02-24T09:39:08.744Z,96848.55
2019-02-24T09:41:37.813Z,96847.14
2019-02-24T09:44:07.336Z,96831.41
2019-02-24T09:46:36.399Z,96839.75
2019-02-24T09:49:05.525Z,96834.20
2019-02-24T09:51:34.610Z,96834.03
2019-02-24T09:54:03.736Z,96830.63
2019-02-24T09:56:32.800Z,96820.64
2019-02-24T09:59:02.480Z,96822.54
2019-02-24T10:01:31.573Z,96813.81
2019-02-24T10:04:00.572Z,96810.42
2019-02-24T10:06:29.651Z,96807.80
2019-02-24T10:08:58.743Z,96806.33
2019-02-24T10:11:27.880Z,96798.87
2019-02-24T10:13:56.960Z,96792.74
2019-02-24T10:16:26.070Z,96794.91
2019-02-24T10:18:55.170Z,96783.38
2019-02-24T10:21:24.986Z,96778.59
2019-02-24T10:23:54.044Z,96778.50
2019-02-24T10:26:23.348Z,96765.72
2019-02-24T10:28:52.643Z,96773.33
2019-02-24T10:31:21.859Z,96765.62
2019-02-24T10:33:50.883Z,96772.30
2019-02-24T10:36:19.853Z,96762.94
2019-02-24T10:38:49.571Z,96751.84
2019-02-24T10:41:18.736Z,96757.94
2019-02-24T10:43:47.683Z,96753.05
2019-02-24T10:46:16.786Z,96744.45
2019-02-24T10:48:45.695Z,96752.14
2019-02-24T10:51:15.144Z,96753.83
2019-02-24T10:53:44.893Z,96753.17
2019-02-24T10:56:13.945Z,96750.24
2019-02-24T10:58:42.792Z,96742.05
2019-02-24T11:01:12.010Z,96741.17
2019-02-24T11:03:41.087Z,96739.02
2019-02-24T11:06:10.131Z,96742.22
2019-02-24T11:08:39.253Z,96736.89
2019-02-24T11:11:08.997Z,96725.98
2019-02-24T11:30:23.525Z,96708.54
2019-02-24T11:49:38.076Z,96682.62
2019-02-24T11:52:07.244Z,96675.97
2019-02-24T11:54:36.271Z,96669.20
2019-02-24T11:57:05.363Z,96666.94
2019-02-24T11:59:34.507Z,96666.41
2019-02-24T12:02:03.594Z,96669.38
2019-02-24T12:04:32.714Z,96665.99
2019-02-24T12:07:01.966Z,96664.27
2019-02-24T12:09:31.177Z,96661.55
2019-02-24T12:12:00.169Z,96664.53
2019-02-24T12:14:29.535Z,96652.56
2019-02-24T12:16:58.660Z,96655.53
2019-02-24T12:36:13.148Z,96658.84
2019-02-24T12:38:42.255Z,96649.78
2019-02-24T12:41:11.569Z,96653.65
2019-02-24T12:43:41.429Z,96653.61
2019-02-24T13:02:55.499Z,96647.39
2019-02-24T13:05:24.635Z,96641.64
2019-02-24T13:07:53.700Z,96647.63
2019-02-24T13:10:23.582Z,96649.98
2019-02-24T13:12:52.770Z,96651.55
2019-02-24T13:15:21.836Z,96649.69
2019-02-24T13:17:50.719Z,96649.97
2019-02-24T13:20:19.793Z,96653.86
2019-02-24T13:22:49.012Z,96646.13
2019-02-24T13:25:17.950Z,96645.59
2019-02-24T13:27:47.115Z,96645.28
2019-02-24T13:30:16.548Z,96648.02
2019-02-24T13:32:45.774Z,96647.88
2019-02-24T13:35:14.900Z,96652.63
2019-02-24T13:37:43.988Z,96646.95
2019-02-24T13:40:13.110Z,96645.81
2019-02-24T13:42:42.258Z,96646.87
2019-02-24T13:45:13.034Z,96656.01
2019-02-24T13:47:42.325Z,96651.55
2019-02-24T13:50:12.301Z,96642.03
2019-02-24T13:52:41.511Z,96648.23
2019-02-24T13:55:11.227Z,96643.30
2019-02-24T13:57:40.409Z,96652.23
2019-02-24T14:00:12.633Z,96651.94
2019-02-24T14:02:41.698Z,96650.89
2019-02-24T14:05:10.910Z,96651.69
2019-02-24T14:07:40.015Z,96649.52
2019-02-24T14:10:09.922Z,96648.17
2019-02-24T14:12:39.049Z,96647.34
2019-02-24T14:15:08.361Z,96641.46
2019-02-24T14:17:38.112Z,96642.98
2019-02-24T14:20:08.446Z,96638.03
2019-02-24T14:22:37.528Z,96642.88
2019-02-24T14:25:06.994Z,96622.73
2019-02-24T14:27:36.219Z,96643.98
2019-02-24T14:30:07.574Z,96647.83
2019-02-24T14:32:35.271Z,96654.39
2019-02-24T14:35:04.573Z,96648.03
2019-02-24T14:37:34.227Z,96647.63
2019-02-24T14:40:03.614Z,96645.19
2019-02-24T14:42:33.826Z,96642.63
2019-02-24T14:45:02.731Z,96644.51
2019-02-24T15:07:40.398Z,96635.47
2019-02-24T15:10:11.578Z,96636.85
2019-02-24T15:12:40.852Z,96633.19
2019-02-24T15:15:12.247Z,96635.67
2019-02-24T15:17:41.247Z,96630.41
2019-02-24T15:20:11.800Z,96635.38
2019-02-24T15:22:40.842Z,96636.16
2019-02-24T15:25:11.312Z,96637.77
2019-02-24T15:27:40.455Z,96636.12
2019-02-24T15:30:14.147Z,96634.42
2019-02-24T15:32:51.387Z,96640.42
2019-02-24T15:35:12.483Z,96636.62
2019-02-24T15:37:41.587Z,96632.87
2019-02-24T15:40:10.836Z,96634.89
2019-02-24T15:42:40.152Z,96635.34
2019-02-24T15:45:09.666Z,96637.55
2019-02-24T15:47:38.829Z,96643.12
2019-02-24T15:50:07.980Z,96644.98
2019-02-24T15:52:37.108Z,96648.83
2019-02-24T15:55:06.368Z,96650.88
2019-02-24T15:57:35.648Z,96643.62
2019-02-24T16:00:05.889Z,96632.02
2019-02-24T16:02:35.026Z,96653.20
2019-02-24T16:05:03.991Z,96657.84
2019-02-24T16:24:19.128Z,96657.24
2019-02-24T16:26:48.635Z,96666.44
2019-02-24T16:29:17.771Z,96664.29
2019-02-24T16:31:46.783Z,96670.97
2019-02-24T16:34:16.648Z,96674.86
2019-02-24T16:36:45.749Z,96673.69
2019-02-24T16:39:14.798Z,96673.89
2019-02-24T16:41:43.961Z,96675.50
2019-02-24T16:44:12.959Z,96680.83
2019-02-24T16:46:42.054Z,96680.18
2019-02-24T16:49:11.165Z,96678.83
2019-02-24T16:51:40.239Z,96687.83
2019-02-24T16:54:09.330Z,96685.73
2019-02-24T17:13:25.155Z,96686.55
2019-02-24T17:15:55.043Z,96683.47
2019-02-24T17:18:24.161Z,96683.34
2019-02-24T17:20:53.068Z,96681.83
2019-02-24T17:23:22.163Z,96681.56
2019-02-24T17:25:52.992Z,96678.20
2019-02-24T17:28:20.532Z,96680.77
2019-02-24T17:30:49.523Z,96683.06
2019-02-24T17:33:18.704Z,96673.78
2019-02-24T17:35:47.808Z,96674.95
2019-02-24T17:38:16.826Z,96675.20
2019-02-24T17:40:46.105Z,96673.80
2019-02-24T17:43:15.120Z,96677.73
2019-02-24T17:45:44.949Z,96674.12
2019-02-24T17:48:14.018Z,96677.16
2019-02-24T17:50:43.339Z,96685.05
2019-02-24T17:53:13.017Z,96681.83
2019-02-24T17:55:42.314Z,96687.27
2019-02-24T17:58:11.383Z,96686.80
2019-02-24T18:00:45.907Z,96690.17
2019-02-24T18:03:14.971Z,96692.54
2019-02-24T18:05:44.041Z,96691.37
2019-02-24T18:25:03.172Z,96707.26
2019-02-24T18:44:12.460Z,96701.92
2019-02-24T18:46:42.182Z,96709.79
2019-02-24T18:49:11.174Z,96706.20
2019-02-24T18:51:40.155Z,96701.77
2019-02-24T18:54:09.263Z,96707.91
2019-02-24T18:56:38.140Z,96709.98
2019-02-24T18:59:07.271Z,96709.97
2019-02-24T19:01:36.388Z,96707.06
2019-02-24T19:04:05.440Z,96712.16
2019-02-24T19:06:39.089Z,96714.01
2019-02-24T19:09:04.348Z,96716.55
2019-02-24T19:28:18.215Z,96718.11
2019-02-24T19:30:47.224Z,96722.43
2019-02-24T19:33:16.341Z,96721.58
2019-02-24T19:35:45.417Z,96717.30
2019-02-24T19:38:14.378Z,96717.30
2019-02-24T19:57:29.374Z,96705.78
2019-02-24T19:59:58.413Z,96704.39
2019-02-24T20:02:27.515Z,96701.26
2019-02-24T20:04:56.714Z,96698.83
2019-02-24T20:07:25.887Z,96697.29
2019-02-24T20:09:55.101Z,96700.41
2019-02-24T20:12:24.150Z,96701.33
2019-02-24T20:14:53.561Z,96700.88
2019-02-24T20:17:22.651Z,96699.27
2019-02-24T20:19:51.751Z,96693.70
2019-02-24T20:22:20.883Z,96693.92
2019-02-24T20:24:49.964Z,96696.38
2019-02-24T20:27:19.876Z,96701.28
2019-02-24T20:29:49.496Z,96701.03
2019-02-24T20:32:18.607Z,96702.31
2019-02-24T20:34:47.655Z,96704.98
2019-02-24T20:37:17.087Z,96709.98
2019-02-24T20:39:46.163Z,96714.19
2019-02-24T20:59:00.781Z,96707.31
2019-02-24T21:01:30.178Z,96711.77
2019-02-24T21:03:59.129Z,96709.66
2019-02-24T21:06:28.227Z,96710.70
2019-02-24T21:25:42.753Z,96698.62
2019-02-24T21:28:12.020Z,96693.96
2019-02-24T21:30:41.109Z,96697.80
2019-02-24T21:33:10.233Z,96697.46
2019-02-24T21:35:39.512Z,96692.71
2019-02-24T21:38:08.583Z,96689.22
2019-02-24T21:40:37.680Z,96696.76
2019-02-24T21:43:06.819Z,96694.20
2019-02-24T21:45:35.887Z,96693.63
2019-02-24T21:48:05.851Z,96695.84
2019-02-24T21:50:35.007Z,96703.84
2019-02-24T21:53:04.713Z,96699.09
2019-02-24T21:55:33.807Z,96701.66
2019-02-24T21:58:04.353Z,96703.82
2019-02-24T22:00:31.999Z,96701.05
2019-02-24T22:03:01.131Z,96703.61
2019-02-24T22:05:30.307Z,96699.97
2019-02-24T22:07:59.377Z,96704.06
2019-02-24T22:10:28.363Z,96704.27
2019-02-24T22:12:59.387Z,96708.12
2019-02-24T22:15:26.645Z,96705.34
2019-02-24T22:17:56.399Z,96706.83
2019-02-24T22:20:25.509Z,96698.58
2019-02-24T22:22:54.676Z,96698.37
2019-02-24T22:25:23.752Z,96705.31
2019-02-24T22:27:52.848Z,96700.08
2019-02-24T22:30:21.983Z,96697.97
2019-02-24T22:32:51.198Z,96699.24
2019-02-24T22:35:20.183Z,96706.32
2019-02-24T22:37:49.316Z,96706.58
2019-02-24T22:40:18.404Z,96712.27
2019-02-24T22:42:47.649Z,96715.16
2019-02-24T22:45:17.296Z,96719.41
2019-02-24T22:47:46.295Z,96717.89
2019-02-24T22:50:15.477Z,96722.42
2019-02-24T22:52:44.592Z,96722.66
2019-02-24T22:55:13.724Z,96724.50
2019-02-24T22:57:43.087Z,96714.88
2019-02-24T23:00:20.624Z,96715.56
2019-02-24T23:02:49.797Z,96715.52
2019-02-24T23:05:18.819Z,96715.29
2019-02-24T23:07:49.813Z,96711.78
2019-02-24T23:10:17.437Z,96713.97
2019-02-24T23:12:46.517Z,96709.69
2019-02-24T23:15:15.654Z,96718.64
2019-02-24T23:17:45.931Z,96709.69
2019-02-24T23:20:15.138Z,96706.23
2019-02-24T23:22:44.155Z,96703.67
2019-02-24T23:25:13.427Z,96703.09
2019-02-24T23:27:42.528Z,96699.70
2019-02-24T23:30:11.652Z,96696.77
2019-02-24T23:32:41.491Z,96701.39
2019-02-24T23:35:11.246Z,96702.55
2019-02-24T23:37:40.379Z,96704.22
2019-02-24T23:40:09.411Z,96703.85
2019-02-24T23:42:38.495Z,96704.79
2019-02-24T23:45:10.641Z,96704.96
2019-02-24T23:47:36.888Z,96700.91
2019-02-24T23:50:06.035Z,96703.97
2019-02-24T23:52:35.132Z,96701.72
2019-02-24T23:55:04.935Z,96710.45
